Time;durP1;ratioP1;P1;durP2;ratioP2;P2;SDS_P1;SDS_P2;PMS_P1;PMS_P2;Temp;Humidity;BMP_temperature;BMP_pressure;BME280_temperature;BME280_humidity;BME280_pressure;Samples;Min_cycle;Max_cycle;Signal;HPM_P1;HPM_P2
2022/11/19 00:01:16;;;;;;;21.20;13.90;;;;;;;-1.90;100.00;98180.04;106126;1288;61153;-80
2022/11/19 00:03:44;;;;;;;23.60;16.70;;;;;;;-1.91;100.00;98181.98;106334;1279;60311;-81
2022/11/19 00:06:14;;;;;;;23.10;14.40;;;;;;;-1.91;100.00;98185.65;106354;1285;67446;-79
2022/11/19 00:08:41;;;;;;;22.40;15.20;;;;;;;-1.92;100.00;98185.15;106364;1284;60141;-81
2022/11/19 00:11:09;;;;;;;25.00;15.90;;;;;;;-1.93;100.00;98182.92;106357;1286;63639;-81
2022/11/19 00:13:37;;;;;;;24.80;16.90;;;;;;;-1.92;100.00;98182.38;106328;1285;59627;-80
2022/11/19 00:16:07;;;;;;;23.10;15.90;;;;;;;-1.92;100.00;98189.67;106408;1278;59574;-80
2022/11/19 00:18:34;;;;;;;22.60;14.40;;;;;;;-1.92;100.00;98191.77;106366;1284;66850;-80
2022/11/19 00:21:09;;;;;;;22.40;15.50;;;;;;;-1.93;100.00;98189.37;106354;1285;60995;-80
2022/11/19 00:23:37;;;;;;;21.20;15.00;;;;;;;-1.94;100.00;98193.57;106331;1284;63832;-81
2022/11/19 00:26:10;;;;;;;22.00;14.60;;;;;;;-1.94;100.00;98207.33;106324;1278;60356;-81
2022/11/19 00:28:37;;;;;;;20.70;14.50;;;;;;;-1.96;100.00;98208.59;106121;1288;59723;-81
2022/11/19 00:31:07;;;;;;;23.60;14.50;;;;;;;-1.96;100.00;98211.21;106361;1278;65168;-80
2022/11/19 00:33:34;;;;;;;24.20;15.70;;;;;;;-1.96;100.00;98218.52;106364;1286;60949;-81
2022/11/19 00:36:02;;;;;;;19.00;14.00;;;;;;;-1.96;100.00;98217.66;106372;1276;71423;-81
2022/11/19 00:38:29;;;;;;;20.70;14.40;;;;;;;-1.96;100.00;98216.23;106338;1278;59673;-82
2022/11/19 00:40:56;;;;;;;19.70;13.70;;;;;;;-1.96;100.00;98214.16;106346;1278;59695;-82
2022/11/19 00:46:08;;;;;;;19.20;13.30;;;;;;;-1.98;100.00;98210.20;106350;1285;59891;-82
2022/11/19 00:48:37;;;;;;;22.20;15.00;;;;;;;-1.98;100.00;98213.88;106275;1276;63939;-82
2022/11/19 00:51:04;;;;;;;18.40;12.70;;;;;;;-1.99;100.00;98207.63;106112;1291;59701;-82
2022/11/19 00:53:31;;;;;;;17.50;13.10;;;;;;;-2.00;100.00;98209.91;106297;1281;59801;-81
2022/11/19 00:56:01;;;;;;;19.60;12.40;;;;;;;-2.01;100.00;98214.11;106364;1278;75625;-82
2022/11/19 00:58:28;;;;;;;18.90;13.00;;;;;;;-2.03;100.00;98210.34;106364;1278;61301;-81
2022/11/19 01:00:55;;;;;;;18.00;12.70;;;;;;;-2.04;100.00;98210.56;106364;1281;65298;-82
2022/11/19 01:03:22;;;;;;;16.60;11.90;;;;;;;-2.05;100.00;98209.89;106357;1278;59944;-82
2022/11/19 01:05:50;;;;;;;20.30;13.60;;;;;;;-2.06;100.00;98208.52;106359;1286;59686;-82
2022/11/19 01:08:17;;;;;;;21.50;13.90;;;;;;;-2.07;100.00;98212.04;106369;1285;66805;-80
2022/11/19 01:10:44;;;;;;;19.50;14.10;;;;;;;-2.07;100.00;98212.57;106451;1278;59637;-81
2022/11/19 01:15:56;;;;;;;17.90;13.90;;;;;;;-2.10;100.00;98219.42;106066;1287;59720;-81
2022/11/19 01:18:22;;;;;;;20.30;13.90;;;;;;;-2.10;100.00;98223.81;106091;1289;59785;-81
2022/11/19 01:20:49;;;;;;;19.40;13.70;;;;;;;-2.11;100.00;98224.33;106079;1283;68110;-81
2022/11/19 01:23:16;;;;;;;18.20;13.00;;;;;;;-2.10;100.00;98226.21;106043;1284;68939;-81
2022/11/19 01:25:43;;;;;;;17.40;12.30;;;;;;;-2.09;100.00;98233.50;105893;1292;63916;-81
2022/11/19 01:28:09;;;;;;;20.60;12.30;;;;;;;-2.09;100.00;98235.58;106048;1294;60067;-82
2022/11/19 01:30:39;;;;;;;15.80;11.80;;;;;;;-2.09;100.00;98238.72;106008;1283;59770;-82
2022/11/19 01:33:06;;;;;;;17.90;12.80;;;;;;;-2.09;100.00;98236.97;105987;1291;67831;-82
2022/11/19 01:35:33;;;;;;;18.30;13.30;;;;;;;-2.09;100.00;98235.92;105873;1291;61671;-81
2022/11/19 01:38:01;;;;;;;20.50;14.20;;;;;;;-2.08;100.00;98238.88;105971;1282;64078;-82
2022/11/19 01:40:28;;;;;;;18.90;13.80;;;;;;;-2.07;100.00;98247.20;105984;1296;59827;-79
2022/11/19 01:42:55;;;;;;;18.90;13.80;;;;;;;-2.06;100.00;98251.67;106058;1291;61554;-81
2022/11/19 01:45:36;;;;;;;18.80;14.20;;;;;;;-2.06;100.00;98248.01;106049;1285;66502;-81
2022/11/19 01:48:05;;;;;;;21.40;15.30;;;;;;;-2.05;100.00;98244.36;103323;1284;1015673;-79
2022/11/19 01:50:36;;;;;;;18.80;14.00;;;;;;;-2.04;100.00;98250.59;106358;1285;65332;-81
2022/11/19 01:53:03;;;;;;;19.80;14.60;;;;;;;-2.04;100.00;98254.58;106250;1285;60028;-81
2022/11/19 01:55:30;;;;;;;20.50;15.00;;;;;;;-2.04;100.00;98252.31;106361;1278;61305;-79
2022/11/19 01:58:01;;;;;;;21.10;14.90;;;;;;;-2.02;100.00;98248.11;106381;1278;65511;-81
2022/11/19 02:00:27;;;;;;;19.70;14.90;;;;;;;-2.02;100.00;98244.46;106382;1285;59925;-82
2022/11/19 02:02:54;;;;;;;18.90;13.90;;;;;;;-2.03;100.00;98246.55;106359;1285;65252;-82
2022/11/19 02:05:21;;;;;;;19.30;14.60;;;;;;;-2.04;100.00;98252.84;106382;1279;60135;-82
2022/11/19 02:07:55;;;;;;;22.30;15.70;;;;;;;-2.02;100.00;98255.25;106356;1278;60476;-81
2022/11/19 02:10:45;;;;;;;22.10;15.60;;;;;;;-2.02;100.00;98257.83;106381;1282;75555;-82
2022/11/19 02:13:29;;;;;;;22.00;16.60;;;;;;;-2.02;100.00;98257.67;106263;1276;60142;-82
2022/11/19 02:16:03;;;;;;;20.30;15.20;;;;;;;-2.01;100.00;98264.60;106337;1278;72629;-82
2022/11/19 02:18:36;;;;;;;23.80;15.70;;;;;;;-2.02;100.00;98270.88;106356;1278;59552;-81
2022/11/19 02:21:18;;;;;;;22.30;16.20;;;;;;;-2.01;100.00;98268.95;106380;1278;59652;-81
2022/11/19 02:24:02;;;;;;;21.20;14.70;;;;;;;-2.01;100.00;98272.94;106376;1279;75487;-81
2022/11/19 02:26:38;;;;;;;23.20;17.20;;;;;;;-2.02;100.00;98276.46;106363;1285;61384;-81
2022/11/19 02:29:29;;;;;;;24.30;16.50;;;;;;;-2.01;100.00;98275.56;106356;1286;63979;-81
2022/11/19 02:32:07;;;;;;;24.20;17.40;;;;;;;-2.01;100.00;98270.52;106374;1278;59662;-82
2022/11/19 02:34:41;;;;;;;22.50;16.10;;;;;;;-2.01;100.00;98275.73;106370;1285;59584;-81
2022/11/19 02:37:15;;;;;;;23.40;17.60;;;;;;;-2.01;100.00;98284.61;106095;1288;66816;-81
2022/11/19 02:39:58;;;;;;;23.40;17.00;;;;;;;-2.01;100.00;98293.83;106378;1285;61025;-82
2022/11/19 02:42:37;;;;;;;20.30;15.40;;;;;;;-2.00;100.00;98294.69;106045;1285;65318;-79
2022/11/19 02:45:08;;;;;;;19.90;15.00;;;;;;;-1.99;100.00;98299.00;106352;1278;59846;-81
2022/11/19 02:47:40;;;;;;;19.30;13.90;;;;;;;-1.98;100.00;98305.05;106356;1285;59534;-81
2022/11/19 02:50:20;;;;;;;17.20;13.80;;;;;;;-1.98;100.00;98308.20;106344;1285;67977;-81
2022/11/19 02:52:47;;;;;;;18.60;13.80;;;;;;;-2.00;100.00;98314.00;106274;1288;61157;-81
2022/11/19 02:55:16;;;;;;;16.60;14.30;;;;;;;-2.00;100.00;98314.19;106380;1285;72751;-80
2022/11/19 02:57:49;;;;;;;17.10;13.40;;;;;;;-1.99;100.00;98318.16;106341;1285;59693;-82
2022/11/19 03:06:26;;;;;;;17.60;13.00;;;;;;;-2.01;100.00;98309.84;105424;1302;60061;-78
2022/11/19 03:08:53;;;;;;;17.90;14.20;;;;;;;-2.03;100.00;98306.59;105669;1294;64108;-81
2022/11/19 03:11:21;;;;;;;17.10;13.50;;;;;;;-2.03;100.00;98309.75;105637;1294;59794;-81
2022/11/19 03:16:46;;;;;;;16.90;13.70;;;;;;;-2.04;100.00;98306.10;105679;1287;76632;-81
2022/11/19 03:19:31;;;;;;;16.30;13.20;;;;;;;-2.04;100.00;98313.95;105626;1287;61191;-78
2022/11/19 03:22:41;;;;;;;20.80;14.40;;;;;;;-2.06;100.00;98320.77;105520;1293;72303;-80
2022/11/19 03:25:32;;;;;;;18.90;14.00;;;;;;;-2.07;100.00;98318.72;105690;1294;59882;-80
2022/11/19 03:28:03;;;;;;;20.10;14.80;;;;;;;-2.11;100.00;98321.79;105662;1294;60153;-82
2022/11/19 03:30:30;;;;;;;19.10;14.10;;;;;;;-2.13;100.00;98328.45;105696;1287;66703;-81
2022/11/19 03:33:06;;;;;;;20.70;14.20;;;;;;;-2.16;100.00;98329.92;105690;1294;59943;-81
2022/11/19 03:35:40;;;;;;;21.50;14.60;;;;;;;-2.18;100.00;98339.90;106276;1278;74290;-81
2022/11/19 03:38:12;;;;;;;24.10;16.20;;;;;;;-2.20;100.00;98343.09;106244;1288;59806;-81
2022/11/19 03:40:40;;;;;;;22.10;14.70;;;;;;;-2.24;100.00;98348.22;106107;1288;59769;-81
2022/11/19 03:43:10;;;;;;;19.30;15.00;;;;;;;-2.26;100.00;98343.23;106337;1284;65830;-80
2022/11/19 03:45:41;;;;;;;23.10;16.00;;;;;;;-2.29;100.00;98345.91;106393;1284;60081;-81
2022/11/19 03:48:10;;;;;;;23.60;15.70;;;;;;;-2.31;100.00;98348.95;106333;1285;64955;-81
2022/11/19 03:50:56;;;;;;;23.10;15.70;;;;;;;-2.33;100.00;98352.46;106340;1278;59758;-81
2022/11/19 03:53:24;;;;;;;25.10;16.10;;;;;;;-2.35;100.00;98357.75;106233;1287;59596;-80
2022/11/19 03:55:58;;;;;;;26.90;16.00;;;;;;;-2.37;100.00;98368.40;106350;1278;67361;-81
2022/11/19 03:58:25;;;;;;;22.30;15.90;;;;;;;-2.38;100.00;98360.23;106140;1284;59763;-82
2022/11/19 04:00:53;;;;;;;21.70;17.10;;;;;;;-2.37;100.00;98360.76;106358;1285;63837;-81
2022/11/19 04:03:20;;;;;;;22.60;16.10;;;;;;;-2.37;100.00;98360.58;106355;1278;59594;-81
2022/11/19 04:05:47;;;;;;;23.20;16.10;;;;;;;-2.37;100.00;98359.19;106253;1287;59594;-82
2022/11/19 04:08:14;;;;;;;21.50;16.70;;;;;;;-2.38;100.00;98359.91;106352;1286;67997;-80
2022/11/19 04:10:40;;;;;;;22.70;17.40;;;;;;;-2.38;100.00;98366.52;106378;1284;59764;-81
2022/11/19 04:13:07;;;;;;;24.70;18.10;;;;;;;-2.39;100.00;98370.02;106370;1270;71992;-81
2022/11/19 04:15:33;;;;;;;23.10;15.80;;;;;;;-2.38;100.00;98369.81;106163;1285;59692;-82
2022/11/19 04:18:00;;;;;;;21.20;16.30;;;;;;;-2.36;100.00;98370.46;106409;1278;59706;-82
2022/11/19 04:20:26;;;;;;;21.90;16.90;;;;;;;-2.36;100.00;98376.89;106226;1281;67904;-81
2022/11/19 04:22:53;;;;;;;23.60;18.00;;;;;;;-2.36;100.00;98379.51;106139;1285;283490;-81
2022/11/19 04:25:20;;;;;;;22.70;16.50;;;;;;;-2.37;100.00;98382.66;106033;1291;72505;-81
2022/11/19 04:27:46;;;;;;;23.40;16.10;;;;;;;-2.37;100.00;98380.77;106348;1285;59648;-82
2022/11/19 04:30:13;;;;;;;21.70;17.20;;;;;;;-2.39;100.00;98379.42;106374;1278;59652;-81
2022/11/19 04:32:41;;;;;;;25.10;18.30;;;;;;;-2.40;100.00;98381.01;106364;1278;65601;-81
2022/11/19 04:35:07;;;;;;;24.00;18.70;;;;;;;-2.42;100.00;98387.30;106328;1278;61681;-80
2022/11/19 04:37:34;;;;;;;26.90;18.60;;;;;;;-2.43;100.00;98394.27;106345;1285;63852;-82
2022/11/19 04:40:01;;;;;;;22.70;17.10;;;;;;;-2.41;100.00;98396.35;106396;1278;60028;-82
2022/11/19 04:42:27;;;;;;;23.30;18.10;;;;;;;-2.40;100.00;98397.88;106361;1285;59525;-81
2022/11/19 04:44:54;;;;;;;22.80;17.40;;;;;;;-2.40;100.00;98403.79;106354;1285;75587;-81
2022/11/19 04:47:20;;;;;;;23.10;17.50;;;;;;;-2.42;100.00;98405.40;106388;1286;59959;-82
2022/11/19 04:49:47;;;;;;;23.30;17.40;;;;;;;-2.44;100.00;98408.21;106055;1289;65082;-81
2022/11/19 04:52:13;;;;;;;24.00;18.40;;;;;;;-2.44;100.00;98411.88;106061;1280;59831;-82
2022/11/19 04:54:40;;;;;;;26.10;19.80;;;;;;;-2.44;100.00;98411.52;106074;1288;61404;-80
2022/11/19 04:57:06;;;;;;;25.10;18.40;;;;;;;-2.43;100.00;98413.06;106063;1288;60076;-81
2022/11/19 04:59:33;;;;;;;25.80;18.70;;;;;;;-2.42;100.00;98418.09;106073;1288;59713;-80
2022/11/19 05:01:59;;;;;;;28.70;19.40;;;;;;;-2.42;100.00;98424.36;106096;1288;59927;-81
2022/11/19 05:04:26;;;;;;;27.20;19.30;;;;;;;-2.42;100.00;98426.97;105894;1291;59713;-82
2022/11/19 05:06:52;;;;;;;29.20;21.20;;;;;;;-2.42;100.00;98435.33;106071;1288;59700;-81
2022/11/19 05:09:19;;;;;;;31.40;21.20;;;;;;;-2.41;100.00;98439.14;106079;1288;65560;-81
2022/11/19 05:11:45;;;;;;;27.00;20.00;;;;;;;-2.41;100.00;98440.52;106039;1287;68139;-81
2022/11/19 05:14:12;;;;;;;29.80;20.50;;;;;;;-2.41;100.00;98446.44;106032;1281;59748;-81
2022/11/19 05:16:38;;;;;;;29.70;20.80;;;;;;;-2.41;100.00;98444.69;105968;1291;59687;-81
2022/11/19 05:19:06;;;;;;;27.90;19.80;;;;;;;-2.41;100.00;98447.81;106057;1289;59714;-82
2022/11/19 05:21:33;;;;;;;30.30;20.60;;;;;;;-2.42;100.00;98452.02;106246;1285;68358;-81
2022/11/19 05:23:59;;;;;;;28.10;21.10;;;;;;;-2.43;100.00;98454.64;106371;1285;60487;-80
2022/11/19 05:26:26;;;;;;;31.20;20.90;;;;;;;-2.43;100.00;98457.08;106352;1285;59813;-82
2022/11/19 05:28:52;;;;;;;37.40;23.90;;;;;;;-2.43;100.00;98462.82;106332;1285;59661;-80
2022/11/19 05:31:19;;;;;;;30.20;21.20;;;;;;;-2.43;100.00;98461.25;106329;1286;59635;-81
2022/11/19 05:33:45;;;;;;;45.10;27.90;;;;;;;-2.41;100.00;98462.08;106350;1285;67965;-82
2022/11/19 05:36:12;;;;;;;49.00;30.80;;;;;;;-2.39;100.00;98466.05;106363;1286;60964;-81
2022/11/19 05:38:39;;;;;;;40.00;25.80;;;;;;;-2.38;100.00;98467.94;106308;1285;72668;-80
2022/11/19 05:41:06;;;;;;;31.10;21.70;;;;;;;-2.37;100.00;98470.34;106303;1285;59934;-81
2022/11/19 05:43:33;;;;;;;31.00;21.90;;;;;;;-2.36;100.00;98473.45;106333;1284;59843;-81
2022/11/19 05:46:00;;;;;;;33.60;23.90;;;;;;;-2.35;100.00;98474.80;106327;1287;66891;-81
2022/11/19 05:48:28;;;;;;;32.70;21.90;;;;;;;-2.33;100.00;98482.07;106317;1285;69974;-81
2022/11/19 05:50:55;;;;;;;32.50;21.80;;;;;;;-2.31;100.00;98489.35;106327;1284;65172;-81
2022/11/19 05:53:21;;;;;;;35.90;23.20;;;;;;;-2.30;100.00;98496.79;106319;1287;59827;-82
2022/11/19 05:55:48;;;;;;;34.90;23.10;;;;;;;-2.29;100.00;98504.42;106349;1285;59737;-81
2022/11/19 05:58:14;;;;;;;38.10;23.80;;;;;;;-2.27;100.00;98506.46;106335;1278;76734;-81
2022/11/19 06:00:41;;;;;;;38.80;25.40;;;;;;;-2.26;100.00;98504.88;106339;1286;59739;-82
2022/11/19 06:03:08;;;;;;;38.00;25.60;;;;;;;-2.23;100.00;98507.77;106296;1285;59838;-82
2022/11/19 06:05:35;;;;;;;33.10;24.50;;;;;;;-2.21;100.00;98506.51;106249;1284;59673;-82
2022/11/19 06:08:01;;;;;;;37.70;24.30;;;;;;;-2.19;100.00;98508.90;106347;1285;59911;-81
2022/11/19 06:10:28;;;;;;;33.60;22.80;;;;;;;-2.19;100.00;98515.67;106350;1285;75463;-82
2022/11/19 06:12:54;;;;;;;36.20;24.60;;;;;;;-2.18;100.00;98520.19;106351;1278;59674;-82
2022/11/19 06:15:21;;;;;;;32.80;23.10;;;;;;;-2.18;100.00;98522.45;106308;1291;65182;-83
2022/11/19 06:17:47;;;;;;;33.50;24.70;;;;;;;-2.17;100.00;98526.59;106301;1284;59626;-81
2022/11/19 06:20:14;;;;;;;34.40;23.40;;;;;;;-2.17;100.00;98527.48;106361;1286;61404;-81
2022/11/19 06:22:41;;;;;;;32.50;23.60;;;;;;;-2.18;100.00;98532.02;106064;1291;68239;-82
2022/11/19 06:25:08;;;;;;;36.10;26.30;;;;;;;-2.17;100.00;98541.05;106460;1285;59936;-82
2022/11/19 06:27:34;;;;;;;36.60;25.40;;;;;;;-2.17;100.00;98543.48;106540;1284;64074;-81
2022/11/19 06:30:01;;;;;;;34.00;23.90;;;;;;;-2.17;100.00;98541.38;106558;1278;59734;-82
2022/11/19 06:32:28;;;;;;;33.70;24.70;;;;;;;-2.14;100.00;98548.80;106481;1281;60339;-82
2022/11/19 06:34:54;;;;;;;37.90;25.80;;;;;;;-2.12;100.00;98553.98;106575;1284;66803;-81
2022/11/19 06:37:21;;;;;;;34.40;23.40;;;;;;;-2.10;100.00;98556.19;106588;1282;59692;-82
2022/11/19 06:39:48;;;;;;;33.90;25.30;;;;;;;-2.05;100.00;98562.17;106231;1283;71748;-80
2022/11/19 06:44:59;;;;;;;34.70;25.10;;;;;;;-1.95;100.00;98572.02;106557;1285;59732;-80
2022/11/19 06:47:25;;;;;;;35.50;24.20;;;;;;;-1.89;100.00;98574.86;106581;1278;66545;-80
2022/11/19 06:49:52;;;;;;;35.20;24.30;;;;;;;-1.86;100.00;98575.13;106611;1284;59463;-81
2022/11/19 06:52:18;;;;;;;35.10;24.00;;;;;;;-1.84;100.00;98579.23;106575;1284;63615;-80
2022/11/19 06:54:45;;;;;;;37.90;25.10;;;;;;;-1.79;100.00;98582.45;106594;1276;59636;-82
2022/11/19 06:57:11;;;;;;;30.10;22.30;;;;;;;-1.74;100.00;98578.15;106616;1277;59608;-80
2022/11/19 06:59:38;;;;;;;34.20;24.40;;;;;;;-1.70;100.00;98581.36;106451;1285;66827;-81
2022/11/19 07:02:06;;;;;;;36.80;25.40;;;;;;;-1.66;100.00;98584.57;106379;1285;61329;-82
2022/11/19 07:04:32;;;;;;;37.60;26.30;;;;;;;-1.61;100.00;98587.59;106290;1285;62962;-82
2022/11/19 07:06:59;;;;;;;35.30;25.10;;;;;;;-1.57;100.00;98582.80;106329;1292;59754;-82
2022/11/19 07:09:25;;;;;;;36.30;26.50;;;;;;;-1.53;100.00;98580.77;106348;1285;59881;-82
2022/11/19 07:11:52;;;;;;;37.00;27.20;;;;;;;-1.49;100.00;98581.72;106373;1284;68115;-82
2022/11/19 07:14:18;;;;;;;37.40;27.60;;;;;;;-1.46;100.00;98585.99;106244;1281;61071;-81
2022/11/19 07:16:45;;;;;;;37.20;26.50;;;;;;;-1.43;100.00;98589.59;106355;1278;64932;-81
2022/11/19 07:19:12;;;;;;;36.90;26.40;;;;;;;-1.39;100.00;98593.48;106237;1285;59641;-81
2022/11/19 07:21:40;;;;;;;36.20;26.80;;;;;;;-1.30;100.00;98595.89;106341;1285;59684;-80
2022/11/19 07:24:08;;;;;;;33.00;24.40;;;;;;;-1.19;100.00;98595.26;106394;1284;68289;-80
2022/11/19 07:26:36;;;;;;;29.70;22.90;;;;;;;-1.07;100.00;98590.41;106440;1286;59688;-82
2022/11/19 07:29:05;;;;;;;27.20;21.20;;;;;;;-0.96;100.00;98593.06;106585;1284;62727;-81
2022/11/19 07:31:33;;;;;;;32.30;23.30;;;;;;;-0.83;100.00;98590.28;106773;1282;59038;-81
2022/11/19 07:34:00;;;;;;;32.10;23.80;;;;;;;-0.71;100.00;98593.41;106577;1280;58948;-83
2022/11/19 07:36:27;;;;;;;30.50;22.50;;;;;;;-0.57;100.00;98588.86;106271;1285;66082;-81
2022/11/19 07:38:53;;;;;;;30.50;22.10;;;;;;;-0.47;100.00;98589.79;106740;1284;59586;-83
2022/11/19 07:44:05;;;;;;;35.90;24.80;;;;;;;-0.40;100.00;98589.56;106392;1286;59699;-80
2022/11/19 07:46:32;;;;;;;30.80;21.50;;;;;;;-0.33;100.00;98586.92;106487;1282;59597;-81
2022/11/19 07:48:59;;;;;;;30.90;21.20;;;;;;;-0.28;100.00;98584.34;106401;1285;65254;-82
2022/11/19 07:51:26;;;;;;;32.20;22.30;;;;;;;-0.26;100.00;98582.03;106375;1284;61200;-82
2022/11/19 07:53:54;;;;;;;30.70;22.00;;;;;;;-0.23;100.00;98584.89;106441;1284;64148;-81
2022/11/19 07:56:21;;;;;;;27.40;20.70;;;;;;;-0.20;100.00;98587.25;106411;1284;59726;-81
2022/11/19 07:58:48;;;;;;;30.10;21.60;;;;;;;-0.15;100.00;98587.29;106397;1289;59742;-82
2022/11/19 08:01:17;;;;;;;27.70;21.80;;;;;;;-0.10;100.00;98587.66;106686;1280;65619;-81
2022/11/19 08:03:48;;;;;;;27.50;20.40;;;;;;;-0.07;100.00;98584.59;106334;1285;60076;-82
2022/11/19 08:06:17;;;;;;;26.70;20.10;;;;;;;-0.09;100.00;98588.30;106633;1282;72843;-82
2022/11/19 08:08:44;;;;;;;27.00;21.20;;;;;;;-0.15;100.00;98591.29;106323;1292;59628;-82
2022/11/19 08:11:13;;;;;;;26.50;21.30;;;;;;;-0.15;100.00;98591.11;106696;1278;59581;-82
2022/11/19 08:13:40;;;;;;;28.50;22.00;;;;;;;-0.09;100.00;98587.98;106443;1287;67464;-81
2022/11/19 08:18:10;;;;;;;31.00;23.70;;;;;;;-0.04;100.00;98588.84;106384;1284;69147;-82
2022/11/19 08:19:11;;;;;;;29.60;22.00;;;;;;;-0.03;100.00;98595.64;106352;1286;73894;-81
2022/11/19 08:21:41;;;;;;;33.80;25.50;;;;;;;0.05;100.00;98597.48;106171;1288;59751;-81
2022/11/19 08:24:09;;;;;;;36.00;24.00;;;;;;;0.20;100.00;98600.67;106546;1284;59595;-83
2022/11/19 08:26:36;;;;;;;34.40;26.30;;;;;;;0.36;100.00;98602.27;106497;1281;65260;-81
2022/11/19 08:29:04;;;;;;;27.40;22.20;;;;;;;0.55;100.00;98604.98;106629;1284;59659;-82
2022/11/19 08:31:31;;;;;;;29.60;23.30;;;;;;;0.75;100.00;98603.25;106353;1287;64419;-81
2022/11/19 08:34:00;;;;;;;29.10;24.50;;;;;;;0.93;100.00;98609.85;106695;1269;59963;-81
2022/11/19 08:36:27;;;;;;;26.00;22.50;;;;;;;0.96;100.00;98607.45;106627;1281;59577;-82
2022/11/19 08:38:59;;;;;;;24.70;19.20;;;;;;;1.02;100.00;98600.27;106737;1282;65523;-81
2022/11/19 08:44:12;;;;;;;27.30;18.90;;;;;;;1.04;100.00;98607.36;105622;1285;1002977;-82
2022/11/19 08:46:39;;;;;;;25.10;19.20;;;;;;;1.04;100.00;98611.92;106386;1283;59714;-82
2022/11/19 08:49:06;;;;;;;21.60;17.50;;;;;;;1.06;100.00;98614.09;106360;1285;59690;-82
2022/11/19 08:51:33;;;;;;;24.10;17.00;;;;;;;1.06;100.00;98615.86;106363;1281;67968;-83
2022/11/19 08:53:59;;;;;;;23.60;17.10;;;;;;;1.00;100.00;98617.48;106344;1286;59670;-81
2022/11/19 08:56:26;;;;;;;25.10;18.70;;;;;;;0.89;100.00;98618.02;106378;1285;64239;-82
2022/11/19 08:58:53;;;;;;;24.10;18.70;;;;;;;0.76;100.00;98621.77;106110;1286;59700;-82
2022/11/19 09:01:20;;;;;;;22.40;16.80;;;;;;;0.67;100.00;98628.02;106373;1286;59661;-81
2022/11/19 09:03:46;;;;;;;19.90;14.80;;;;;;;0.59;100.00;98632.81;106133;1287;65482;-80
2022/11/19 09:06:13;;;;;;;18.60;14.20;;;;;;;0.45;100.00;98635.52;106290;1284;70039;-82
2022/11/19 09:08:40;;;;;;;16.90;14.00;;;;;;;0.32;100.00;98641.54;106358;1285;64057;-80
2022/11/19 09:11:09;;;;;;;17.00;13.40;;;;;;;0.21;100.00;98648.87;106369;1285;59821;-80
2022/11/19 09:13:36;;;;;;;15.00;13.20;;;;;;;0.12;100.00;98650.90;106141;1289;59965;-81
2022/11/19 09:16:03;;;;;;;13.10;11.80;;;;;;;0.14;100.00;98649.95;106393;1284;66798;-79
2022/11/19 09:18:31;;;;;;;18.10;13.80;;;;;;;0.18;100.00;98651.05;106301;1289;61319;-81
2022/11/19 09:20:59;;;;;;;19.40;14.20;;;;;;;0.21;100.00;98651.14;106327;1286;65273;-82
2022/11/19 09:23:26;;;;;;;18.60;13.50;;;;;;;0.22;100.00;98653.55;106347;1286;60105;-81
2022/11/19 09:25:57;;;;;;;17.10;14.00;;;;;;;0.20;100.00;98656.77;106471;1278;61376;-83
2022/11/19 09:28:24;;;;;;;21.00;14.60;;;;;;;0.18;100.00;98656.83;106394;1285;68103;-81
2022/11/19 09:31:00;;;;;;;21.50;17.60;;;;;;;0.15;100.00;98657.64;106402;1284;59983;-81
2022/11/19 09:33:32;;;;;;;20.80;16.40;;;;;;;0.11;100.00;98659.48;106277;1284;65207;-82
2022/11/19 09:35:58;;;;;;;21.20;16.30;;;;;;;0.05;100.00;98666.30;106372;1286;59770;-81
2022/11/19 09:38:25;;;;;;;22.50;15.70;;;;;;;0.03;100.00;98667.95;106372;1285;59673;-81
2022/11/19 09:40:53;;;;;;;17.10;13.90;;;;;;;0.07;100.00;98666.60;106266;1287;68090;-79
2022/11/19 09:43:49;;;;;;;15.90;12.90;;;;;;;0.08;100.00;98671.08;106290;1285;69696;-79
2022/11/19 09:46:37;;;;;;;17.60;13.70;;;;;;;0.09;100.00;98674.40;106342;1292;64163;-80
2022/11/19 09:49:11;;;;;;;17.50;14.40;;;;;;;0.08;100.00;98679.13;106387;1286;59708;-80
2022/11/19 09:51:41;;;;;;;15.70;12.10;;;;;;;0.08;100.00;98683.85;106288;1287;60090;-80
2022/11/19 09:54:17;;;;;;;12.80;11.00;;;;;;;0.07;100.00;98680.75;106104;1289;66874;-81
2022/11/19 09:56:45;;;;;;;13.90;11.10;;;;;;;0.09;100.00;98676.49;106165;1288;60986;-81
2022/11/19 09:59:28;;;;;;;16.90;13.00;;;;;;;0.15;100.00;98666.90;106468;1285;64344;-80
2022/11/19 10:01:54;;;;;;;21.70;17.70;;;;;;;0.22;100.00;98664.93;106321;1284;59771;-77
2022/11/19 10:04:25;;;;;;;21.50;17.80;;;;;;;0.18;100.00;98664.85;106375;1284;59421;-80
2022/11/19 10:06:57;;;;;;;;;;;;;;;0.14;100.00;98662.54;106490;1282;66822;-81
2022/11/19 10:09:43;;;;;;;22.60;17.60;;;;;;;0.21;100.00;98661.79;106717;1284;67685;-81
2022/11/19 10:12:32;;;;;;;28.60;19.90;;;;;;;0.32;100.00;98662.15;105101;1284;1002530;-81
2022/11/19 10:15:19;;;;;;;23.30;17.70;;;;;;;0.43;100.00;98661.13;106701;1284;59432;-81
2022/11/19 10:17:56;;;;;;;27.60;19.00;;;;;;;0.38;100.00;98659.88;106601;1284;59545;-79
2022/11/19 10:20:45;;;;;;;21.10;17.60;;;;;;;0.26;100.00;98661.81;106658;1284;67023;-81
2022/11/19 10:23:39;;;;;;;24.90;18.80;;;;;;;0.11;100.00;98661.91;106731;1282;59477;-83
2022/11/19 10:26:13;;;;;;;23.50;17.10;;;;;;;0.01;100.00;98663.95;106254;1277;64117;-84
2022/11/19 10:28:47;;;;;;;22.90;17.60;;;;;;;-0.03;100.00;98659.04;106436;1285;58873;-83
2022/11/19 10:33:10;;;;;;;24.40;18.20;;;;;;;-0.09;100.00;98653.43;100375;1336;604085;-83
2022/11/19 10:35:50;;;;;;;23.90;18.40;;;;;;;-0.12;100.00;98659.46;104857;1299;56745;-83
2022/11/19 10:38:23;;;;;;;22.80;17.50;;;;;;;-0.15;100.00;98661.30;104897;1306;57151;-83
2022/11/19 10:41:00;;;;;;;23.90;19.30;;;;;;;-0.10;100.00;98653.45;105103;1305;72223;-80
2022/11/19 10:43:36;;;;;;;19.70;16.40;;;;;;;0.07;100.00;98650.70;105381;1298;60017;-84
2022/11/19 10:46:05;;;;;;;21.40;17.20;;;;;;;0.11;100.00;98653.20;105307;1295;194454;-83
2022/11/19 10:48:44;;;;;;;17.30;14.60;;;;;;;0.13;100.00;98653.13;105532;1296;56304;-83
2022/11/19 10:51:22;;;;;;;16.90;14.40;;;;;;;0.07;100.00;98651.94;106368;1282;56435;-83
2022/11/19 10:53:52;;;;;;;18.30;14.50;;;;;;;-0.01;100.00;98656.70;106163;1290;61994;-83
2022/11/19 10:56:24;;;;;;;17.10;14.50;;;;;;;-0.11;100.00;98654.89;106430;1279;58338;-81
2022/11/19 10:58:55;;;;;;;17.70;14.50;;;;;;;-0.16;100.00;98654.70;106154;1280;62590;-84
2022/11/19 11:01:24;;;;;;;19.50;15.80;;;;;;;-0.19;100.00;98660.38;106121;1290;57279;-83
2022/11/19 11:04:14;;;;;;;18.60;13.80;;;;;;;-0.20;100.00;98661.45;105972;1274;57220;-84
2022/11/19 11:06:55;;;;;;;19.50;15.70;;;;;;;-0.17;100.00;98661.53;105424;1299;63189;-83
2022/11/19 11:09:28;;;;;;;18.70;16.30;;;;;;;-0.11;100.00;98665.88;105412;1300;69978;-76
2022/11/19 11:14:53;;;;;;;19.00;16.00;;;;;;;0.00;100.00;98665.58;105434;1298;59715;-83
2022/11/19 11:17:30;;;;;;;17.50;14.20;;;;;;;0.02;100.00;98664.30;105406;1298;57418;-82
2022/11/19 11:20:06;;;;;;;18.20;15.60;;;;;;;-0.01;100.00;98664.05;105424;1299;65827;-83
2022/11/19 11:22:34;;;;;;;24.10;18.10;;;;;;;0.02;100.00;98667.27;105448;1297;61376;-84
2022/11/19 11:25:01;;;;;;;22.50;17.70;;;;;;;0.04;100.00;98665.45;105406;1298;65290;-83
2022/11/19 11:27:32;;;;;;;23.10;18.40;;;;;;;-0.02;100.00;98662.30;105390;1299;58964;-82
2022/11/19 11:30:10;;;;;;;25.80;20.70;;;;;;;-0.04;100.00;98659.03;105457;1292;57410;-84
2022/11/19 11:32:38;;;;;;;27.00;19.60;;;;;;;-0.09;100.00;98659.71;105453;1300;65872;-82
2022/11/19 11:35:06;;;;;;;23.30;18.80;;;;;;;-0.15;100.00;98661.12;105425;1297;59152;-82
2022/11/19 11:37:34;;;;;;;23.30;18.30;;;;;;;-0.20;100.00;98657.09;105314;1299;72120;-81
2022/11/19 11:40:01;;;;;;;24.10;18.70;;;;;;;-0.26;100.00;98656.54;105415;1296;57616;-81
2022/11/19 11:42:28;;;;;;;26.10;20.90;;;;;;;-0.24;100.00;98655.09;105409;1300;59745;-81
2022/11/19 11:45:05;;;;;;;24.30;18.00;;;;;;;-0.18;100.00;98653.54;105725;1286;64385;-82